Sunday, October 22, 2017, 8:46 PM EDT
Back to Local

KWST, Westerly State Airport

Location: Westerly, RI, United States Lat: 41.35
Local Time: 8:46 PM EDT ( 0:46 GMT) Lon: -71.8
Time Zone: US/Eastern Elev: 82 ft

Show me the last for .
Show Decoded

2017-10-22 19:53 METAR KWST 222353Z AUTO 00000KT 10SM CLR 16/13 A3039 RMK AO2 SLP292 T01560133
                 10239 20150 53001 =
2017-10-22 18:53 METAR KWST 222253Z AUTO 00000KT 10SM CLR 18/14 A3039 RMK AO2 SLP289 T01780139 =
2017-10-22 17:53 METAR KWST 222153Z AUTO 21004KT 10SM CLR 19/13 A3039 RMK AO2 SLP290 T01940133 =
2017-10-22 16:53 METAR KWST 222053Z AUTO 19007KT 10SM CLR 21/13 A3039 RMK AO2 SLP290 T02110128
                 53002 =
2017-10-22 15:53 METAR KWST 221953Z AUTO VRB05KT 10SM CLR 23/13 A3038 RMK AO2 SLP288 T02280133 =
2017-10-22 14:53 METAR KWST 221853Z AUTO 25005KT 10SM CLR 23/10 A3039 RMK AO2 SLP289 T02280100 =
2017-10-22 13:53 METAR KWST 221753Z AUTO 24005KT 10SM CLR 24/09 A3039 RMK AO2 SLP289 T02390094
                 10244 20083 56010 =
2017-10-22 12:53 METAR KWST 221653Z AUTO VRB04KT 10SM CLR 24/08 A3039 RMK AO2 SLP291 T02440083 =
2017-10-22 11:53 METAR KWST 221553Z AUTO VRB04KT 10SM CLR 22/12 A3040 RMK AO2 SLP294 T02220117 =
2017-10-22 10:53 METAR KWST 221453Z AUTO VRB03KT 10SM CLR 21/09 A3042 RMK AO2 SLP299 T02060094
                 50005 =
2017-10-22 09:53 METAR KWST 221353Z AUTO 00000KT 10SM CLR 16/11 A3043 RMK AO2 SLP303 T01610111 =
2017-10-22 08:53 METAR KWST 221253Z AUTO 00000KT 10SM CLR 13/11 A3042 RMK AO2 SLP301 T01280106 =
2017-10-22 07:53 METAR KWST 221153Z AUTO 00000KT 10SM CLR 08/07 A3040 RMK AO2 SLP294 T00830072
                 10089 20072 53013 =
2017-10-22 06:53 METAR KWST 221053Z AUTO 00000KT 10SM CLR 08/07 A3039 RMK AO2 SLP288 T00780067 =
2017-10-22 05:53 METAR KWST 220953Z AUTO 00000KT 10SM CLR 07/06 A3037 RMK AO2 SLP285 T00720061 =
2017-10-22 04:53 METAR KWST 220853Z AUTO 00000KT 10SM CLR 07/06 A3036 RMK AO2 SLP281 T00720061
                 53002 =
2017-10-22 03:53 METAR KWST 220753Z AUTO 00000KT 10SM CLR 08/07 A3036 RMK AO2 SLP279 T00780067 =
2017-10-22 02:53 METAR KWST 220653Z AUTO 00000KT 10SM CLR 08/07 A3035 RMK AO2 SLP276 T00830072 =
2017-10-22 01:53 METAR KWST 220553Z AUTO 00000KT 10SM CLR 09/08 A3036 RMK AO2 SLP279 T00890078
                 10172 20089 53001 =
2017-10-22 00:53 METAR KWST 220453Z AUTO 00000KT 10SM CLR 10/08 A3036 RMK AO2 SLP278 T01000083
                 402220072 =
2017-10-21 23:53 METAR KWST 220353Z AUTO 00000KT 10SM CLR 11/09 A3035 RMK AO2 SLP277 T01060094 =
2017-10-21 22:53 METAR KWST 220253Z AUTO 00000KT 10SM CLR 12/11 A3035 RMK AO2 SLP278 T01220106
                 51005 =
2017-10-21 21:53 METAR KWST 220153Z AUTO 00000KT 10SM CLR 15/12 A3035 RMK AO2 SLP278 T01500122 =
2017-10-21 20:53 METAR KWST 220053Z AUTO 24005KT 10SM CLR 17/12 A3034 RMK AO2 SLP274 T01720117 =

Support USWX by starting your Amazon purchase here.